createdAt,value
2023-05-12T00:03:36.613Z,22.27
2023-05-12T00:08:40.944Z,22.21
2023-05-12T00:13:44.105Z,22.14
2023-05-12T00:18:47.041Z,22.11
2023-05-12T00:23:51.253Z,22.09
2023-05-12T00:28:54.150Z,22.05
2023-05-12T00:33:57.004Z,22.03
2023-05-12T00:39:01.575Z,22.04
2023-05-12T00:44:04.546Z,21.95
2023-05-12T00:49:07.823Z,21.94
2023-05-12T00:54:12.073Z,21.90
2023-05-12T00:59:14.823Z,21.86
2023-05-12T01:04:17.798Z,21.78
2023-05-12T01:09:23.220Z,21.79
2023-05-12T01:14:26.385Z,21.68
2023-05-12T01:19:35.546Z,21.60
2023-05-12T01:24:56.215Z,21.56
2023-05-12T01:30:03.282Z,21.53
2023-05-12T01:35:10.000Z,21.52
2023-05-12T01:40:16.360Z,21.47
2023-05-12T01:45:20.998Z,21.46
2023-05-12T01:50:25.064Z,21.45
2023-05-12T01:55:27.903Z,21.44
2023-05-12T02:00:35.438Z,21.40
2023-05-12T02:05:39.314Z,21.37
2023-05-12T02:10:42.115Z,21.35
2023-05-12T02:15:46.381Z,21.35
2023-05-12T02:20:49.288Z,21.33
2023-05-12T02:25:52.088Z,21.30
2023-05-12T02:30:56.949Z,21.29
2023-05-12T02:36:00.646Z,21.26
2023-05-12T02:41:03.528Z,21.26
2023-05-12T02:46:07.933Z,21.25
2023-05-12T02:51:10.868Z,21.21
2023-05-12T02:56:13.760Z,21.20
2023-05-12T03:01:18.026Z,21.18
2023-05-12T03:06:20.792Z,21.19
2023-05-12T03:11:23.728Z,21.17
2023-05-12T03:16:28.055Z,21.16
2023-05-12T03:21:30.909Z,21.13
2023-05-12T03:26:34.166Z,21.11
2023-05-12T03:31:38.826Z,21.10
2023-05-12T03:36:42.129Z,21.08
2023-05-12T03:41:45.206Z,21.06
2023-05-12T03:46:49.474Z,21.05
2023-05-12T03:51:52.571Z,21.03
2023-05-12T03:56:55.532Z,21.02
2023-05-12T04:01:59.959Z,21.03
2023-05-12T04:07:02.801Z,21.00
2023-05-12T04:12:06.286Z,21.00
2023-05-12T04:17:10.489Z,20.91
2023-05-12T04:22:13.266Z,20.98
2023-05-12T04:27:16.559Z,20.97
2023-05-12T04:32:21.817Z,20.97
2023-05-12T04:37:25.037Z,20.97
2023-05-12T04:42:28.021Z,20.99
2023-05-12T04:47:32.391Z,21.00
2023-05-12T04:52:35.334Z,20.97
2023-05-12T04:57:40.912Z,20.98
2023-05-12T05:02:47.371Z,21.02
2023-05-12T05:07:50.844Z,20.99
2023-05-12T05:12:53.920Z,21.02
2023-05-12T05:18:01.784Z,21.04
2023-05-12T05:23:05.255Z,21.03
2023-05-12T05:28:08.175Z,21.05
2023-05-12T05:33:13.631Z,21.07
2023-05-12T05:38:16.885Z,21.09
2023-05-12T05:43:19.801Z,21.11
2023-05-12T05:48:24.683Z,21.15
2023-05-12T05:53:27.849Z,21.18
2023-05-12T05:58:31.456Z,21.23
2023-05-12T06:03:38.511Z,21.25
2023-05-12T06:08:41.564Z,21.30
2023-05-12T06:13:44.465Z,21.38
2023-05-12T06:18:48.935Z,21.46
2023-05-12T06:23:52.307Z,21.54
2023-05-12T06:28:56.191Z,21.60
2023-05-12T06:34:00.596Z,21.64
2023-05-12T06:39:04.395Z,21.65
2023-05-12T06:44:12.519Z,21.66
2023-05-12T06:49:16.952Z,21.68
2023-05-12T06:54:19.891Z,21.67
2023-05-12T06:59:22.979Z,21.69
2023-05-12T07:04:27.899Z,21.52
2023-05-12T07:09:30.815Z,21.30
2023-05-12T07:14:33.637Z,21.19
2023-05-12T07:19:39.624Z,21.19
2023-05-12T07:24:42.600Z,21.22
2023-05-12T07:29:45.429Z,21.24
2023-05-12T07:34:49.600Z,21.22
2023-05-12T07:39:52.556Z,21.25
2023-05-12T07:44:55.462Z,21.21
2023-05-12T07:49:59.704Z,21.23
2023-05-12T07:55:02.626Z,21.21
2023-05-12T08:00:07.282Z,21.23
2023-05-12T08:05:17.098Z,21.28
2023-05-12T08:10:20.355Z,21.31
2023-05-12T08:15:23.415Z,21.34
2023-05-12T08:20:27.877Z,21.36
2023-05-12T08:25:31.363Z,21.33
2023-05-12T08:30:34.392Z,21.30
2023-05-12T08:35:38.672Z,21.36
2023-05-12T08:40:48.435Z,21.38
2023-05-12T08:45:51.202Z,21.36
2023-05-12T08:50:55.446Z,21.35
2023-05-12T08:57:08.904Z,21.42
2023-05-12T09:01:21.503Z,21.50
2023-05-12T09:06:26.154Z,21.50
2023-05-12T09:11:28.976Z,21.51
2023-05-12T09:16:33.881Z,21.49
2023-05-12T09:21:38.363Z,21.52
2023-05-12T09:26:48.420Z,21.53
2023-05-12T09:31:51.911Z,21.52
2023-05-12T09:36:59.256Z,21.54
2023-05-12T09:42:02.022Z,21.53
2023-05-12T09:47:07.984Z,21.63
2023-05-12T09:52:12.238Z,21.69
2023-05-12T09:57:15.414Z,21.70
2023-05-12T10:02:18.656Z,21.74
2023-05-12T10:07:23.978Z,21.75
2023-05-12T10:12:26.914Z,21.75
2023-05-12T10:17:30.048Z,21.75
2023-05-12T10:22:34.587Z,21.78
2023-05-12T10:27:37.946Z,21.88
2023-05-12T10:32:41.470Z,21.93
2023-05-12T10:37:48.085Z,21.93
2023-05-12T10:42:51.609Z,21.95
2023-05-12T10:47:54.509Z,22.03
2023-05-12T10:52:58.733Z,22.06
2023-05-12T10:58:10.768Z,22.08
2023-05-12T11:03:16.521Z,22.11
2023-05-12T11:08:21.765Z,22.16
2023-05-12T11:13:25.177Z,22.14
2023-05-12T11:18:28.123Z,22.20
2023-05-12T11:23:32.422Z,22.22
2023-05-12T11:28:40.818Z,22.24
2023-05-12T11:33:43.629Z,22.29
2023-05-12T11:38:51.284Z,22.38
2023-05-12T11:43:54.119Z,22.43
2023-05-12T11:48:57.446Z,22.48
2023-05-12T11:54:01.629Z,22.56
2023-05-12T11:59:04.564Z,22.55
2023-05-12T12:04:07.817Z,22.52
2023-05-12T12:09:12.376Z,22.63
2023-05-12T12:14:15.497Z,22.72
2023-05-12T12:19:18.319Z,22.73
2023-05-12T12:24:22.457Z,22.64
2023-05-12T12:29:26.259Z,22.62
2023-05-12T12:34:30.141Z,22.64
2023-05-12T12:39:34.258Z,22.62
2023-05-12T12:44:37.055Z,22.64
2023-05-12T12:49:39.914Z,22.63
2023-05-12T12:54:44.129Z,22.59
2023-05-12T12:59:46.891Z,22.58
2023-05-12T13:04:51.229Z,22.55
2023-05-12T13:09:55.568Z,22.45
2023-05-12T13:15:00.138Z,22.47
2023-05-12T13:20:03.944Z,22.41
2023-05-12T13:25:09.021Z,22.53
2023-05-12T13:30:13.722Z,22.52
2023-05-12T13:35:17.130Z,22.57
2023-05-12T13:40:27.215Z,22.58
2023-05-12T13:45:30.123Z,22.70
2023-05-12T13:50:33.728Z,22.71
2023-05-12T13:55:40.831Z,22.69
2023-05-12T14:00:43.889Z,22.64
2023-05-12T14:05:46.750Z,22.66
2023-05-12T14:10:50.880Z,22.66
2023-05-12T14:15:54.139Z,22.71
2023-05-12T14:20:57.362Z,22.90
2023-05-12T14:26:01.646Z,23.03
2023-05-12T14:31:04.758Z,23.16
2023-05-12T14:36:09.009Z,23.30
2023-05-12T14:41:13.393Z,23.32
2023-05-12T14:46:16.563Z,23.23
2023-05-12T14:51:19.510Z,23.17
2023-05-12T14:56:25.262Z,23.17
2023-05-12T15:01:28.126Z,23.28
2023-05-12T15:06:30.952Z,23.51
2023-05-12T15:11:36.911Z,23.48
2023-05-12T15:16:40.269Z,27.11
2023-05-12T15:21:43.045Z,27.84
2023-05-12T15:26:47.189Z,26.29
2023-05-12T15:31:50.204Z,25.88
2023-05-12T15:36:53.221Z,25.77
2023-05-12T15:41:57.614Z,25.66
2023-05-12T15:47:00.815Z,25.72
2023-05-12T15:52:03.732Z,24.84
2023-05-12T15:57:08.508Z,24.39
2023-05-12T16:02:11.608Z,24.19
2023-05-12T16:07:15.685Z,24.12
2023-05-12T16:12:19.805Z,24.19
2023-05-12T16:17:22.793Z,24.22
2023-05-12T16:22:25.966Z,24.48
2023-05-12T16:27:31.981Z,24.54
2023-05-12T16:32:34.948Z,24.56
2023-05-12T16:37:37.983Z,24.59
2023-05-12T16:42:42.675Z,24.62
2023-05-12T16:47:45.609Z,24.74
2023-05-12T16:52:48.392Z,24.83
2023-05-12T16:57:52.469Z,24.88
2023-05-12T17:02:55.323Z,24.86
2023-05-12T17:07:58.141Z,24.75
2023-05-12T17:13:02.517Z,24.63
2023-05-12T17:18:05.429Z,24.48
2023-05-12T17:23:09.162Z,24.39
2023-05-12T17:28:13.390Z,24.28
2023-05-12T17:33:16.461Z,24.20
2023-05-12T17:38:20.281Z,24.11
2023-05-12T17:43:24.538Z,24.02
2023-05-12T17:48:27.478Z,23.94
2023-05-12T17:53:30.422Z,23.88
2023-05-12T17:58:34.571Z,23.82
2023-05-12T18:03:37.911Z,23.73
2023-05-12T18:08:40.814Z,23.69
2023-05-12T18:13:45.194Z,23.67
2023-05-12T18:18:48.685Z,23.64
2023-05-12T18:23:51.572Z,23.61
2023-05-12T18:28:55.750Z,23.58
2023-05-12T18:33:58.512Z,23.59
2023-05-12T18:39:01.498Z,23.57
2023-05-12T18:44:05.768Z,23.55
2023-05-12T18:49:08.618Z,23.56
2023-05-12T18:54:11.449Z,23.56
2023-05-12T18:59:15.618Z,23.51
2023-05-12T19:04:19.513Z,23.48
2023-05-12T19:09:22.587Z,23.47
2023-05-12T19:14:26.954Z,23.43
2023-05-12T19:19:29.807Z,23.43
2023-05-12T19:24:32.624Z,23.43
2023-05-12T19:29:36.733Z,23.44
2023-05-12T19:34:39.720Z,23.44
2023-05-12T19:39:42.625Z,23.44
2023-05-12T19:44:46.856Z,23.36
2023-05-12T19:49:50.156Z,23.34
2023-05-12T19:54:53.474Z,23.32
2023-05-12T19:59:58.251Z,23.31
2023-05-12T20:05:01.131Z,23.30
2023-05-12T20:10:04.742Z,23.27
2023-05-12T20:15:09.980Z,23.28
2023-05-12T20:20:13.084Z,23.27
2023-05-12T20:25:17.696Z,23.28
2023-05-12T20:30:21.918Z,23.29
2023-05-12T20:35:24.759Z,23.30
2023-05-12T20:40:27.568Z,23.33
2023-05-12T20:45:31.713Z,23.34
2023-05-12T20:50:34.731Z,23.39
2023-05-12T20:55:37.830Z,23.45
2023-05-12T21:00:41.899Z,23.48
2023-05-12T21:05:47.660Z,23.51
2023-05-12T21:10:50.660Z,23.52
2023-05-12T21:15:54.826Z,23.50
2023-05-12T21:20:57.580Z,23.47
2023-05-12T21:26:00.329Z,23.46
2023-05-12T21:31:04.604Z,23.41
2023-05-12T21:36:08.063Z,23.39
2023-05-12T21:41:10.816Z,23.36
2023-05-12T21:46:15.017Z,23.36
2023-05-12T21:51:17.833Z,23.37
2023-05-12T21:56:20.664Z,23.26
2023-05-12T22:01:24.935Z,23.31
2023-05-12T22:06:27.733Z,23.31
2023-05-12T22:11:30.580Z,23.29
2023-05-12T22:16:41.944Z,23.27
2023-05-12T22:21:45.711Z,23.27
2023-05-12T22:26:48.664Z,23.24
2023-05-12T22:31:53.026Z,23.24
2023-05-12T22:36:55.839Z,23.22
2023-05-12T22:41:58.936Z,23.22
2023-05-12T22:47:03.194Z,23.21
2023-05-12T22:52:06.661Z,23.21
2023-05-12T22:57:09.557Z,23.19
2023-05-12T23:02:13.691Z,23.17
2023-05-12T23:07:16.481Z,23.16
2023-05-12T23:12:19.214Z,23.15
2023-05-12T23:17:23.339Z,23.15
2023-05-12T23:22:26.153Z,23.15
2023-05-12T23:27:28.974Z,23.13
2023-05-12T23:32:33.159Z,23.12
2023-05-12T23:37:36.118Z,23.12
2023-05-12T23:42:38.898Z,23.12
2023-05-12T23:47:43.188Z,23.09
2023-05-12T23:52:45.959Z,23.07
2023-05-12T23:57:48.749Z,23.08
